createdAt,value
2023-05-22T00:01:09.693Z,93151.88
2023-05-22T00:03:37.400Z,93144.75
2023-05-22T00:06:06.404Z,93145.12
2023-05-22T00:08:33.753Z,93148.59
2023-05-22T00:11:01.703Z,93144.97
2023-05-22T00:13:29.086Z,93148.66
2023-05-22T00:15:56.810Z,93147.47
2023-05-22T00:18:25.713Z,93139.81
2023-05-22T00:20:53.746Z,93140.87
2023-05-22T00:23:22.095Z,93144.62
2023-05-22T00:25:50.943Z,93141.31
2023-05-22T00:28:18.296Z,93133.53
2023-05-22T00:30:46.102Z,93139.16
2023-05-22T00:33:13.750Z,93138.09
2023-05-22T00:35:41.054Z,93138.59
2023-05-22T00:38:09.312Z,93127.50
2023-05-22T00:40:37.325Z,93136.72
2023-05-22T00:43:08.811Z,93127.06
2023-05-22T00:45:36.942Z,93129.09
2023-05-22T00:48:04.600Z,93127.78
2023-05-22T00:50:32.016Z,93128.38
2023-05-22T00:53:01.596Z,93123.50
2023-05-22T00:55:29.022Z,93130.25
2023-05-22T00:57:57.667Z,93127.06
2023-05-22T01:00:25.844Z,93125.25
2023-05-22T01:02:53.289Z,93119.06
2023-05-22T01:05:21.247Z,93125.94
2023-05-22T01:07:49.027Z,93118.22
2023-05-22T01:10:16.443Z,93122.56
2023-05-22T01:13:06.965Z,93119.06
2023-05-22T01:15:54.541Z,93123.56
2023-05-22T01:18:45.407Z,93119.69
2023-05-22T01:21:30.410Z,93124.16
2023-05-22T01:24:12.284Z,93123.12
2023-05-22T01:26:54.249Z,93117.00
2023-05-22T01:29:43.400Z,93114.94
2023-05-22T01:32:16.705Z,93113.38
2023-05-22T01:34:46.335Z,93114.66
2023-05-22T01:37:16.633Z,93113.88
2023-05-22T01:39:45.590Z,93113.38
2023-05-22T01:42:13.372Z,93114.47
2023-05-22T01:44:41.663Z,93113.78
2023-05-22T01:47:09.160Z,93114.59
2023-05-22T01:49:37.036Z,93109.56
2023-05-22T01:52:12.438Z,93107.94
2023-05-22T01:54:45.600Z,93106.62
2023-05-22T01:57:16.775Z,93108.13
2023-05-22T01:59:50.929Z,93110.66
2023-05-22T02:02:21.501Z,93112.31
2023-05-22T02:05:05.022Z,93114.47
2023-05-22T02:07:36.746Z,93103.78
2023-05-22T02:10:07.431Z,93109.44
2023-05-22T02:12:37.705Z,93109.44
2023-05-22T02:15:07.213Z,93104.00
2023-05-22T02:17:40.744Z,93101.03
2023-05-22T02:20:17.054Z,93107.66
2023-05-22T02:22:47.157Z,93102.87
2023-05-22T02:25:17.267Z,93111.22
2023-05-22T02:27:47.124Z,93106.22
2023-05-22T02:30:15.458Z,93107.44
2023-05-22T02:32:43.804Z,93108.03
2023-05-22T02:35:11.642Z,93113.41
2023-05-22T02:37:39.041Z,93109.34
2023-05-22T02:40:08.155Z,93114.28
2023-05-22T02:42:36.464Z,93117.41
2023-05-22T02:45:04.315Z,93117.87
2023-05-22T02:47:34.118Z,93110.03
2023-05-22T02:50:02.011Z,93112.41
2023-05-22T02:52:31.765Z,93116.84
2023-05-22T02:55:18.026Z,93118.34
2023-05-22T02:57:47.763Z,93115.44
2023-05-22T03:00:15.429Z,93112.81
2023-05-22T03:02:43.016Z,93110.75
2023-05-22T03:05:11.024Z,93112.31
2023-05-22T03:07:38.597Z,93106.50
2023-05-22T03:10:07.063Z,93107.56
2023-05-22T03:12:34.715Z,93111.97
2023-05-22T03:15:02.604Z,93113.97
2023-05-22T03:17:31.459Z,93113.28
2023-05-22T03:19:59.236Z,93114.22
2023-05-22T03:22:26.878Z,93125.59
2023-05-22T03:24:54.352Z,93123.88
2023-05-22T03:27:22.106Z,93127.72
2023-05-22T03:29:49.740Z,93125.00
2023-05-22T03:32:17.877Z,93125.53
2023-05-22T03:34:47.922Z,93120.66
2023-05-22T03:37:16.024Z,93118.69
2023-05-22T03:39:43.520Z,93119.94
2023-05-22T03:42:15.735Z,93123.38
2023-05-22T03:44:43.118Z,93127.03
2023-05-22T03:47:11.255Z,93122.25
2023-05-22T03:49:38.633Z,93121.47
2023-05-22T03:52:06.250Z,93124.69
2023-05-22T03:54:34.203Z,93125.94
2023-05-22T03:57:03.110Z,93127.78
2023-05-22T03:59:30.525Z,93126.84
2023-05-22T04:01:58.298Z,93119.72
2023-05-22T04:04:27.080Z,93122.50
2023-05-22T04:06:54.572Z,93126.66
2023-05-22T04:09:21.908Z,93123.16
2023-05-22T04:11:49.791Z,93125.44
2023-05-22T04:14:17.179Z,93122.81
2023-05-22T04:16:50.444Z,93125.53
2023-05-22T04:19:22.352Z,93122.81
2023-05-22T04:21:50.032Z,93127.88
2023-05-22T04:24:27.911Z,93123.38
2023-05-22T04:26:56.360Z,93117.00
2023-05-22T04:29:38.090Z,93118.59
2023-05-22T04:32:10.805Z,93128.63
2023-05-22T04:35:02.494Z,93127.16
2023-05-22T04:37:31.987Z,93123.81
2023-05-22T04:40:05.954Z,93122.84
2023-05-22T04:42:34.934Z,93121.34
2023-05-22T04:45:04.161Z,93122.25
2023-05-22T04:48:05.569Z,93121.06
2023-05-22T04:50:47.114Z,93123.53
2023-05-22T04:53:18.462Z,93125.75
2023-05-22T04:55:51.375Z,93123.22
2023-05-22T04:58:19.257Z,93120.69
2023-05-22T05:00:47.644Z,93119.69
2023-05-22T05:03:15.335Z,93119.75
2023-05-22T05:05:42.845Z,93118.00
2023-05-22T05:08:11.492Z,93116.97
2023-05-22T05:10:39.712Z,93122.22
2023-05-22T05:13:38.178Z,93125.13
2023-05-22T05:16:06.823Z,93121.62
2023-05-22T05:18:35.161Z,93122.78
2023-05-22T05:21:02.793Z,93124.63
2023-05-22T05:23:30.821Z,93123.84
2023-05-22T05:25:58.419Z,93120.19
2023-05-22T05:28:26.439Z,93116.75
2023-05-22T05:30:54.840Z,93113.34
2023-05-22T05:33:22.412Z,93111.47
2023-05-22T05:35:52.827Z,93113.31
2023-05-22T05:38:23.674Z,93123.03
2023-05-22T05:40:53.854Z,93116.19
2023-05-22T05:43:25.565Z,93118.25
2023-05-22T05:46:00.478Z,93111.31
2023-05-22T05:48:29.109Z,93127.22
2023-05-22T05:50:57.430Z,93121.09
2023-05-22T05:53:32.046Z,93121.25
2023-05-22T05:56:00.523Z,93128.56
2023-05-22T05:58:29.942Z,93127.44
2023-05-22T06:00:57.610Z,93123.44
2023-05-22T06:03:29.995Z,93114.75
2023-05-22T06:06:00.777Z,93118.06
2023-05-22T06:08:34.665Z,93126.22
2023-05-22T06:11:04.861Z,93122.97
2023-05-22T06:13:32.712Z,93124.13
2023-05-22T06:16:03.536Z,93122.50
2023-05-22T06:18:33.246Z,93115.81
2023-05-22T06:21:01.182Z,93124.28
2023-05-22T06:23:36.641Z,93124.97
2023-05-22T06:26:05.495Z,93126.03
2023-05-22T06:28:32.971Z,93125.09
2023-05-22T06:31:02.068Z,93132.25
2023-05-22T06:33:30.245Z,93123.44
2023-05-22T06:35:58.825Z,93118.87
2023-05-22T06:38:26.897Z,93121.19
2023-05-22T06:40:54.944Z,93117.66
2023-05-22T06:43:23.172Z,93120.47
2023-05-22T06:45:51.317Z,93122.16
2023-05-22T06:48:48.556Z,93127.94
2023-05-22T06:51:28.981Z,93121.50
2023-05-22T06:53:59.715Z,93122.41
2023-05-22T06:56:29.178Z,93124.78
2023-05-22T06:58:58.971Z,93128.19
2023-05-22T07:01:27.192Z,93122.19
2023-05-22T07:04:07.382Z,93126.66
2023-05-22T07:06:41.908Z,93122.97
2023-05-22T07:09:11.684Z,93121.13
2023-05-22T07:11:40.214Z,93123.28
2023-05-22T07:14:08.298Z,93117.78
2023-05-22T07:16:38.987Z,93115.75
2023-05-22T07:19:08.943Z,93112.13
2023-05-22T07:21:36.714Z,93106.16
2023-05-22T07:24:08.574Z,93109.19
2023-05-22T07:26:37.270Z,93105.63
2023-05-22T07:29:05.949Z,93108.13
2023-05-22T07:31:34.558Z,93111.75
2023-05-22T07:34:02.467Z,93112.91
2023-05-22T07:36:32.825Z,93110.59
2023-05-22T07:39:22.417Z,93108.38
2023-05-22T07:41:57.897Z,93115.75
2023-05-22T07:44:35.979Z,93102.69
2023-05-22T07:47:08.001Z,93115.38
2023-05-22T07:49:37.903Z,93117.00
2023-05-22T07:52:06.141Z,93115.88
2023-05-22T07:54:38.508Z,93110.94
2023-05-22T07:57:09.388Z,93111.37
2023-05-22T07:59:37.843Z,93113.59
2023-05-22T08:02:06.267Z,93112.38
2023-05-22T08:04:34.202Z,93111.84
2023-05-22T08:07:01.842Z,93115.59
2023-05-22T08:09:31.028Z,93116.59
2023-05-22T08:12:00.231Z,93112.91
2023-05-22T08:14:28.633Z,93105.88
2023-05-22T08:16:57.230Z,93110.03
2023-05-22T08:19:25.389Z,93104.81
2023-05-22T08:21:58.297Z,93109.72
2023-05-22T08:24:30.728Z,93112.56
2023-05-22T08:26:58.912Z,93119.53
2023-05-22T08:29:36.794Z,93117.87
2023-05-22T08:32:05.222Z,93118.63
2023-05-22T08:34:34.466Z,93116.59
2023-05-22T08:37:01.866Z,93125.72
2023-05-22T08:39:29.302Z,93122.12
2023-05-22T08:41:57.519Z,93121.78
2023-05-22T08:44:25.941Z,93128.97
2023-05-22T08:46:56.764Z,93123.56
2023-05-22T08:49:25.330Z,93121.38
2023-05-22T08:52:13.117Z,93129.94
2023-05-22T08:54:46.181Z,93123.56
2023-05-22T08:57:13.794Z,93123.94
2023-05-22T08:59:43.979Z,93129.41
2023-05-22T09:02:16.929Z,93128.47
2023-05-22T09:04:44.791Z,93123.63
2023-05-22T09:07:12.192Z,93124.81
2023-05-22T09:09:40.118Z,93121.62
2023-05-22T09:12:09.920Z,93119.84
2023-05-22T09:14:42.225Z,93117.63
2023-05-22T09:17:12.107Z,93118.81
2023-05-22T09:19:43.900Z,93115.00
2023-05-22T09:22:19.747Z,93110.34
2023-05-22T09:24:51.782Z,93114.66
2023-05-22T09:27:23.667Z,93113.94
2023-05-22T09:29:53.001Z,93121.75
2023-05-22T09:32:21.204Z,93122.44
2023-05-22T09:34:49.099Z,93125.09
2023-05-22T09:37:17.607Z,93127.84
2023-05-22T09:39:46.249Z,93129.62
2023-05-22T09:42:17.738Z,93126.50
2023-05-22T09:44:49.754Z,93124.69
2023-05-22T09:47:17.662Z,93127.84
2023-05-22T09:49:46.406Z,93114.59
2023-05-22T09:52:13.904Z,93116.06
2023-05-22T09:54:58.004Z,93117.50
2023-05-22T09:57:28.951Z,93118.78
2023-05-22T09:59:58.979Z,93119.13
2023-05-22T10:02:41.327Z,93115.84
2023-05-22T10:05:10.197Z,93107.25
2023-05-22T10:07:46.252Z,93110.91
2023-05-22T10:10:19.860Z,93101.81
2023-05-22T10:13:01.286Z,93104.28
2023-05-22T10:15:30.113Z,93116.69
2023-05-22T10:17:59.570Z,93116.38
2023-05-22T10:20:34.209Z,93103.41
2023-05-22T10:23:04.292Z,93106.50
2023-05-22T10:25:44.398Z,93106.56
2023-05-22T10:28:30.146Z,93116.38
2023-05-22T10:31:06.709Z,93107.72
2023-05-22T10:33:45.295Z,93116.34
2023-05-22T10:37:05.989Z,93114.72
2023-05-22T10:40:08.079Z,93104.22
2023-05-22T10:42:38.046Z,93106.44
2023-05-22T10:45:09.523Z,93103.50
2023-05-22T10:48:00.139Z,93108.03
2023-05-22T10:50:30.871Z,93095.75
2023-05-22T10:53:25.634Z,93101.53
2023-05-22T10:55:55.309Z,93103.09
2023-05-22T10:58:36.649Z,93112.69
2023-05-22T11:01:17.841Z,93126.34
2023-05-22T11:03:53.681Z,93136.06
2023-05-22T11:06:45.769Z,93164.22
2023-05-22T11:09:30.459Z,93162.75
2023-05-22T11:12:18.329Z,93158.94
2023-05-22T11:14:50.232Z,93176.47
2023-05-22T11:17:26.226Z,93168.91
2023-05-22T11:20:02.884Z,93157.25
2023-05-22T11:22:41.256Z,93159.81
2023-05-22T11:25:19.975Z,93159.66
2023-05-22T11:27:48.632Z,93160.47
2023-05-22T11:30:17.511Z,93168.03
2023-05-22T11:32:51.708Z,93151.41
2023-05-22T11:35:23.777Z,93152.78
2023-05-22T11:37:52.814Z,93159.09
2023-05-22T11:40:29.842Z,93155.06
2023-05-22T11:43:07.692Z,93152.72
2023-05-22T11:45:38.222Z,93149.75
2023-05-22T11:48:05.976Z,93155.03
2023-05-22T11:50:42.383Z,93165.28
2023-05-22T11:53:11.203Z,93169.22
2023-05-22T11:55:38.658Z,93177.09
2023-05-22T11:58:06.327Z,93184.06
2023-05-22T12:00:34.153Z,93179.03
2023-05-22T12:03:02.115Z,93177.91
2023-05-22T12:05:32.412Z,93167.09
2023-05-22T12:08:00.138Z,93170.69
2023-05-22T12:10:27.913Z,93174.38
2023-05-22T12:12:55.440Z,93167.41
2023-05-22T12:15:24.645Z,93166.59
2023-05-22T12:17:55.976Z,93170.47
2023-05-22T12:20:23.497Z,93166.47
2023-05-22T12:22:50.946Z,93160.25
2023-05-22T12:25:20.341Z,93165.19
2023-05-22T12:27:47.975Z,93156.56
2023-05-22T12:30:16.065Z,93153.09
2023-05-22T12:32:49.276Z,93150.00
2023-05-22T12:35:17.811Z,93149.34
2023-05-22T12:37:50.571Z,93138.28
2023-05-22T12:40:18.423Z,93142.88
2023-05-22T12:42:46.349Z,93136.41
2023-05-22T12:45:14.135Z,93123.91
2023-05-22T12:47:41.604Z,93125.37
2023-05-22T12:50:09.631Z,93125.22
2023-05-22T12:52:37.061Z,93129.97
2023-05-22T12:55:04.882Z,93127.47
2023-05-22T12:57:32.574Z,93116.88
2023-05-22T12:59:59.921Z,93123.25
2023-05-22T13:02:27.592Z,93125.16
2023-05-22T13:04:55.462Z,93121.50
2023-05-22T13:07:22.937Z,93112.75
2023-05-22T13:09:50.335Z,93124.53
2023-05-22T13:12:19.503Z,93119.59
2023-05-22T13:14:46.914Z,93104.84
2023-05-22T13:17:14.342Z,93107.69
2023-05-22T13:19:42.006Z,93110.87
2023-05-22T13:22:09.484Z,93108.78
2023-05-22T13:24:37.006Z,93106.78
2023-05-22T13:27:04.855Z,93097.59
2023-05-22T13:29:33.242Z,93098.88
2023-05-22T13:32:01.634Z,93101.00
2023-05-22T13:34:30.115Z,93098.50
2023-05-22T13:36:57.678Z,93097.44
2023-05-22T13:39:25.242Z,93098.06
2023-05-22T13:41:53.608Z,93091.31
2023-05-22T13:44:21.512Z,93079.47
2023-05-22T13:46:49.346Z,93077.03
2023-05-22T13:49:17.476Z,93070.63
2023-05-22T13:51:44.956Z,93064.97
2023-05-22T13:54:12.280Z,93067.13
2023-05-22T13:56:40.015Z,93069.41
2023-05-22T13:59:09.355Z,93060.56
2023-05-22T14:01:37.033Z,93076.78
2023-05-22T14:04:05.996Z,93064.53
2023-05-22T14:06:33.395Z,93070.50
2023-05-22T14:09:00.807Z,93065.41
2023-05-22T14:11:28.653Z,93060.28
2023-05-22T14:13:56.073Z,93057.16
2023-05-22T14:16:23.519Z,93059.19
2023-05-22T14:18:51.373Z,93055.09
2023-05-22T14:21:21.522Z,93060.72
2023-05-22T14:23:48.988Z,93048.66
2023-05-22T14:26:16.784Z,93055.72
2023-05-22T14:28:44.360Z,93048.97
2023-05-22T14:31:11.811Z,93054.66
2023-05-22T14:33:39.544Z,93054.84
2023-05-22T14:36:07.119Z,93050.03
2023-05-22T14:38:34.799Z,93049.94
2023-05-22T14:41:05.214Z,93054.12
2023-05-22T14:43:33.644Z,93052.59
2023-05-22T14:46:01.253Z,93050.03
2023-05-22T14:48:29.603Z,93050.34
2023-05-22T14:50:56.954Z,93049.91
2023-05-22T14:53:24.376Z,93046.72
2023-05-22T14:55:52.095Z,93046.78
2023-05-22T14:58:19.578Z,93060.69
2023-05-22T15:00:47.484Z,93057.22
2023-05-22T15:03:15.356Z,93064.19
2023-05-22T15:05:42.768Z,93057.50
2023-05-22T15:08:10.383Z,93070.72
2023-05-22T15:10:38.097Z,93081.25
2023-05-22T15:13:05.793Z,93083.91
2023-05-22T15:15:33.486Z,93091.75
2023-05-22T15:18:02.967Z,93098.00
2023-05-22T15:20:31.379Z,93107.72
2023-05-22T15:22:59.790Z,93111.94
2023-05-22T15:25:30.492Z,93118.44
2023-05-22T15:27:58.381Z,93125.72
2023-05-22T15:30:25.873Z,93132.38
2023-05-22T15:32:53.772Z,93127.25
2023-05-22T15:35:21.222Z,93133.34
2023-05-22T15:37:48.641Z,93122.31
2023-05-22T15:40:16.475Z,93138.25
2023-05-22T15:42:44.084Z,93138.72
2023-05-22T15:45:11.579Z,93141.84
2023-05-22T15:47:39.402Z,93150.09
2023-05-22T15:50:07.249Z,93150.16
2023-05-22T15:52:34.728Z,93145.38
2023-05-22T15:55:02.548Z,93149.28
2023-05-22T15:57:30.452Z,93138.22
2023-05-22T15:59:57.873Z,93141.03
2023-05-22T16:02:25.885Z,93133.47
2023-05-22T16:04:54.479Z,93129.69
2023-05-22T16:07:45.152Z,93134.78
2023-05-22T16:10:23.362Z,93134.31
2023-05-22T16:12:52.655Z,93132.84
2023-05-22T16:15:20.580Z,93128.88
2023-05-22T16:17:48.141Z,93122.62
2023-05-22T16:20:15.727Z,93117.28
2023-05-22T16:22:48.487Z,93116.81
2023-05-22T16:25:17.040Z,93122.66
2023-05-22T16:27:44.938Z,93112.47
2023-05-22T16:30:17.142Z,93109.72
2023-05-22T16:32:48.861Z,93117.38
2023-05-22T16:35:16.632Z,93120.09
2023-05-22T16:37:44.059Z,93118.81
2023-05-22T16:40:12.232Z,93122.84
2023-05-22T16:42:39.636Z,93117.59
2023-05-22T16:45:07.809Z,93110.69
2023-05-22T16:47:35.579Z,93121.31
2023-05-22T16:50:03.310Z,93124.13
2023-05-22T16:52:33.060Z,93123.81
2023-05-22T16:55:01.493Z,93129.47
2023-05-22T16:57:29.633Z,93129.12
2023-05-22T16:59:57.965Z,93140.75
2023-05-22T17:02:26.768Z,93148.91
2023-05-22T17:04:54.725Z,93152.25
2023-05-22T17:07:22.658Z,93152.19
2023-05-22T17:09:51.412Z,93147.97
2023-05-22T17:12:18.806Z,93165.97
2023-05-22T17:14:46.873Z,93169.41
2023-05-22T17:17:15.014Z,93166.28
2023-05-22T17:19:42.723Z,93166.81
2023-05-22T17:22:10.100Z,93172.31
2023-05-22T17:24:38.054Z,93178.19
2023-05-22T17:27:06.997Z,93169.25
2023-05-22T17:29:34.972Z,93172.16
2023-05-22T17:32:05.015Z,93183.31
2023-05-22T17:34:33.891Z,93181.75
2023-05-22T17:37:01.434Z,93178.84
2023-05-22T17:39:30.147Z,93186.78
2023-05-22T17:41:59.682Z,93194.69
2023-05-22T17:44:28.206Z,93188.63
2023-05-22T17:46:55.986Z,93192.56
2023-05-22T17:49:23.572Z,93202.06
2023-05-22T17:51:50.975Z,93206.25
2023-05-22T17:54:18.967Z,93206.25
2023-05-22T17:56:46.563Z,93212.56
2023-05-22T17:59:14.103Z,93208.63
2023-05-22T18:01:41.895Z,93210.22
2023-05-22T18:04:11.471Z,93214.69
2023-05-22T18:06:39.543Z,93219.44
2023-05-22T18:09:08.226Z,93221.50
2023-05-22T18:11:36.131Z,93219.41
2023-05-22T18:14:03.893Z,93224.44
2023-05-22T18:16:31.634Z,93223.88
2023-05-22T18:18:59.672Z,93230.34
2023-05-22T18:21:27.074Z,93238.59
2023-05-22T18:23:55.915Z,93234.56
2023-05-22T18:26:23.729Z,93243.00
2023-05-22T18:28:51.337Z,93243.50
2023-05-22T18:31:18.823Z,93252.69
2023-05-22T18:33:46.844Z,93262.94
2023-05-22T18:36:14.260Z,93272.41
2023-05-22T18:38:41.819Z,93271.91
2023-05-22T18:41:09.578Z,93284.53
2023-05-22T18:43:36.945Z,93290.28
2023-05-22T18:46:04.394Z,93290.81
2023-05-22T18:48:33.335Z,93298.19
2023-05-22T18:51:01.010Z,93291.34
2023-05-22T18:53:28.511Z,93306.41
2023-05-22T18:55:56.374Z,93312.44
2023-05-22T18:58:23.906Z,93318.38
2023-05-22T19:00:52.309Z,93318.09
2023-05-22T19:03:20.109Z,93311.53
2023-05-22T19:05:47.624Z,93320.88
2023-05-22T19:08:14.962Z,93316.03
2023-05-22T19:10:42.960Z,93316.81
2023-05-22T19:13:10.557Z,93323.50
2023-05-22T19:15:38.614Z,93327.75
2023-05-22T19:18:06.477Z,93319.34
2023-05-22T19:20:34.279Z,93319.31
2023-05-22T19:23:01.900Z,93320.38
2023-05-22T19:25:29.717Z,93309.09
2023-05-22T19:27:57.117Z,93315.09
2023-05-22T19:30:24.665Z,93315.94
2023-05-22T19:32:56.054Z,93310.41
2023-05-22T19:35:23.521Z,93307.50
2023-05-22T19:37:50.998Z,93303.56
2023-05-22T19:40:19.081Z,93299.13
2023-05-22T19:42:46.725Z,93308.03
2023-05-22T19:45:14.188Z,93301.00
2023-05-22T19:47:42.009Z,93302.78
2023-05-22T19:50:09.948Z,93297.00
2023-05-22T19:52:37.384Z,93297.28
2023-05-22T19:55:05.600Z,93295.75
2023-05-22T19:57:33.073Z,93287.06
2023-05-22T20:00:00.481Z,93291.78
2023-05-22T20:02:28.504Z,93284.72
2023-05-22T20:04:56.467Z,93277.81
2023-05-22T20:07:23.959Z,93284.66
2023-05-22T20:09:51.753Z,93281.72
2023-05-22T20:12:19.511Z,93275.38
2023-05-22T20:14:46.952Z,93283.31
2023-05-22T20:17:14.553Z,93288.88
2023-05-22T20:19:45.124Z,93275.44
2023-05-22T20:22:12.585Z,93268.03
2023-05-22T20:24:40.066Z,93271.94
2023-05-22T20:27:07.803Z,93273.47
2023-05-22T20:29:37.076Z,93271.37
2023-05-22T20:32:04.777Z,93269.50
2023-05-22T20:34:32.618Z,93270.06
2023-05-22T20:37:00.257Z,93261.91
2023-05-22T20:39:28.470Z,93264.56
2023-05-22T20:41:56.351Z,93266.13
2023-05-22T20:44:25.111Z,93275.06
2023-05-22T20:46:53.578Z,93274.28
2023-05-22T20:49:21.846Z,93268.94
2023-05-22T20:51:54.588Z,93263.16
2023-05-22T20:54:22.423Z,93269.19
2023-05-22T20:56:50.367Z,93271.94
2023-05-22T20:59:17.708Z,93266.69
2023-05-22T21:01:45.491Z,93265.75
2023-05-22T21:04:13.263Z,93275.97
2023-05-22T21:06:40.835Z,93272.13
2023-05-22T21:09:08.629Z,93273.91
2023-05-22T21:11:36.142Z,93265.28
2023-05-22T21:14:03.539Z,93266.22
2023-05-22T21:16:31.291Z,93274.88
2023-05-22T21:18:58.782Z,93272.88
2023-05-22T21:21:26.196Z,93271.63
2023-05-22T21:23:54.019Z,93273.91
2023-05-22T21:26:23.204Z,93275.25
2023-05-22T21:28:50.704Z,93263.97
2023-05-22T21:31:18.498Z,93264.72
2023-05-22T21:33:46.093Z,93260.22
2023-05-22T21:36:13.477Z,93263.59
2023-05-22T21:38:41.371Z,93256.47
2023-05-22T21:41:08.777Z,93255.28
2023-05-22T21:43:36.251Z,93255.56
2023-05-22T21:46:04.107Z,93264.50
2023-05-22T21:48:31.591Z,93263.25
2023-05-22T21:50:59.114Z,93265.31
2023-05-22T21:53:26.914Z,93257.50
2023-05-22T21:55:54.269Z,93265.69
2023-05-22T21:58:21.904Z,93263.75
2023-05-22T22:00:49.687Z,93254.31
2023-05-22T22:03:18.051Z,93256.84
2023-05-22T22:05:45.615Z,93253.97
2023-05-22T22:08:13.039Z,93249.41
2023-05-22T22:10:41.102Z,93248.66
2023-05-22T22:13:08.724Z,93256.31
2023-05-22T22:15:36.865Z,93251.81
2023-05-22T22:18:05.261Z,93245.94
2023-05-22T22:20:43.576Z,93257.72
2023-05-22T22:23:12.675Z,93258.09
2023-05-22T22:25:40.032Z,93260.34
2023-05-22T22:28:07.675Z,93264.31
2023-05-22T22:30:35.666Z,93263.50
2023-05-22T22:33:03.229Z,93255.25
2023-05-22T22:35:30.938Z,93257.34
2023-05-22T22:37:59.005Z,93257.06
2023-05-22T22:40:27.033Z,93251.91
2023-05-22T22:42:54.562Z,93253.50
2023-05-22T22:45:22.275Z,93255.81
2023-05-22T22:47:49.757Z,93253.31
2023-05-22T22:50:17.392Z,93249.78
2023-05-22T22:52:47.912Z,93251.56
2023-05-22T22:55:15.867Z,93254.47
2023-05-22T22:57:44.909Z,93253.38
2023-05-22T23:00:13.659Z,93252.38
2023-05-22T23:02:41.410Z,93251.84
2023-05-22T23:05:09.384Z,93253.13
2023-05-22T23:07:37.452Z,93244.09
2023-05-22T23:10:05.229Z,93244.75
2023-05-22T23:12:35.354Z,93255.41
2023-05-22T23:15:03.938Z,93247.31
2023-05-22T23:17:31.487Z,93245.06
2023-05-22T23:19:58.895Z,93248.97
2023-05-22T23:22:26.596Z,93247.91
2023-05-22T23:24:54.014Z,93251.59
2023-05-22T23:27:22.078Z,93255.25
2023-05-22T23:29:49.763Z,93254.09
2023-05-22T23:32:17.102Z,93253.78
2023-05-22T23:34:44.366Z,93258.97
2023-05-22T23:37:12.043Z,93246.41
2023-05-22T23:39:39.437Z,93249.91
2023-05-22T23:42:09.916Z,93241.50
2023-05-22T23:44:37.667Z,93242.38
2023-05-22T23:47:05.850Z,93241.25
2023-05-22T23:49:33.347Z,93240.34
2023-05-22T23:52:01.290Z,93238.16
2023-05-22T23:54:28.902Z,93242.41
2023-05-22T23:56:56.137Z,93245.34
2023-05-22T23:59:23.826Z,93250.75
